createdAt,value
2023-03-24T00:00:20.163Z,15.44
2023-03-24T00:02:48.695Z,15.63
2023-03-24T00:05:20.975Z,15.53
2023-03-24T00:07:54.156Z,15.59
2023-03-24T00:10:22.774Z,15.47
2023-03-24T00:12:50.594Z,15.41
2023-03-24T00:15:20.235Z,15.15
2023-03-24T00:17:50.341Z,15.21
2023-03-24T00:20:20.180Z,15.09
2023-03-24T00:22:50.968Z,14.97
2023-03-24T00:25:20.333Z,14.85
2023-03-24T00:27:48.972Z,14.87
2023-03-24T00:30:18.384Z,14.98
2023-03-24T00:32:46.310Z,15.09
2023-03-24T00:35:16.343Z,15.11
2023-03-24T00:37:44.542Z,15.11
2023-03-24T00:40:14.504Z,14.97
2023-03-24T00:42:46.142Z,14.93
2023-03-24T00:45:19.759Z,15.05
2023-03-24T00:47:50.156Z,14.89
2023-03-24T00:50:20.698Z,14.81
2023-03-24T00:52:48.998Z,14.81
2023-03-24T00:55:16.365Z,14.81
2023-03-24T00:57:49.922Z,14.70
2023-03-24T01:00:27.174Z,14.79
2023-03-24T01:02:56.833Z,14.57
2023-03-24T01:05:29.712Z,14.50
2023-03-24T01:08:03.331Z,14.57
2023-03-24T01:10:32.756Z,14.62
2023-03-24T01:13:01.005Z,14.68
2023-03-24T01:15:31.413Z,14.54
2023-03-24T01:17:58.061Z,14.60
2023-03-24T01:20:25.151Z,14.40
2023-03-24T01:22:52.341Z,14.51
2023-03-24T01:25:23.291Z,14.56
2023-03-24T01:27:51.733Z,14.61
2023-03-24T01:30:22.001Z,14.57
2023-03-24T01:32:48.614Z,14.55
2023-03-24T01:35:15.385Z,14.48
2023-03-24T01:37:43.303Z,14.80
2023-03-24T01:40:16.485Z,14.76
2023-03-24T01:42:43.304Z,14.72
2023-03-24T01:45:47.459Z,14.81
2023-03-24T01:48:38.490Z,14.78
2023-03-24T01:51:10.476Z,14.77
2023-03-24T01:53:40.989Z,14.78
2023-03-24T01:56:09.522Z,14.67
2023-03-24T01:58:38.073Z,14.73
2023-03-24T02:01:05.899Z,14.75
2023-03-24T02:03:36.649Z,14.83
2023-03-24T02:06:03.564Z,14.74
2023-03-24T02:08:42.174Z,14.66
2023-03-24T02:11:09.334Z,14.67
2023-03-24T02:13:36.451Z,14.72
2023-03-24T02:16:40.930Z,14.65
2023-03-24T02:19:26.502Z,14.74
2023-03-24T02:22:24.692Z,14.62
2023-03-24T02:25:00.212Z,14.71
2023-03-24T02:27:35.558Z,14.70
2023-03-24T02:30:40.419Z,14.70
2023-03-24T02:33:25.766Z,14.71
2023-03-24T02:36:11.300Z,14.63
2023-03-24T02:38:47.076Z,14.63
2023-03-24T02:42:09.333Z,14.64
2023-03-24T02:44:53.797Z,14.65
2023-03-24T02:47:29.282Z,14.74
2023-03-24T02:50:08.786Z,14.65
2023-03-24T02:52:52.380Z,14.59
2023-03-24T02:55:33.654Z,14.62
2023-03-24T02:58:18.701Z,14.52
2023-03-24T03:00:59.551Z,14.51
2023-03-24T03:03:34.619Z,14.46
2023-03-24T03:06:08.250Z,14.44
2023-03-24T03:08:38.010Z,14.41
2023-03-24T03:11:08.858Z,14.44
2023-03-24T03:13:42.093Z,14.60
2023-03-24T03:16:15.651Z,14.35
2023-03-24T03:18:50.220Z,14.35
2023-03-24T03:21:23.673Z,14.35
2023-03-24T03:23:59.127Z,14.37
2023-03-24T03:26:32.514Z,14.29
2023-03-24T03:29:05.504Z,14.32
2023-03-24T03:31:38.116Z,14.36
2023-03-24T03:34:23.101Z,14.33
2023-03-24T03:37:07.991Z,14.41
2023-03-24T03:39:41.534Z,14.50
2023-03-24T03:42:08.076Z,14.46
2023-03-24T03:44:34.722Z,14.28
2023-03-24T03:47:01.442Z,14.29
2023-03-24T03:49:28.118Z,14.32
2023-03-24T03:51:57.330Z,14.28
2023-03-24T03:54:27.454Z,14.32
2023-03-24T03:56:54.924Z,14.36
2023-03-24T03:59:36.050Z,14.19
2023-03-24T04:02:26.230Z,14.14
2023-03-24T04:05:06.587Z,14.13
2023-03-24T04:07:58.126Z,14.27
2023-03-24T04:11:00.497Z,14.24
2023-03-24T04:13:39.620Z,14.05
2023-03-24T04:16:25.415Z,13.95
2023-03-24T04:19:18.001Z,13.87
2023-03-24T04:22:05.789Z,13.88
2023-03-24T04:25:22.710Z,13.83
2023-03-24T04:28:09.658Z,13.85
2023-03-24T04:30:44.789Z,13.87
2023-03-24T04:33:18.016Z,13.78
2023-03-24T04:36:16.938Z,13.78
2023-03-24T04:38:48.094Z,13.68
2023-03-24T04:41:17.898Z,13.70
2023-03-24T04:43:47.530Z,13.73
2023-03-24T04:46:17.852Z,13.90
2023-03-24T04:48:48.136Z,13.98
2023-03-24T04:51:17.384Z,13.91
2023-03-24T04:53:44.189Z,14.04
2023-03-24T04:56:36.582Z,14.05
2023-03-24T04:59:04.337Z,14.06
2023-03-24T05:01:30.931Z,14.04
2023-03-24T05:03:58.664Z,13.97
2023-03-24T05:06:26.042Z,13.96
2023-03-24T05:08:52.766Z,14.01
2023-03-24T05:11:20.370Z,13.93
2023-03-24T05:13:47.449Z,13.85
2023-03-24T05:16:14.971Z,13.76
2023-03-24T05:18:41.652Z,13.64
2023-03-24T05:21:08.510Z,13.63
2023-03-24T05:23:35.274Z,13.61
2023-03-24T05:26:01.814Z,13.45
2023-03-24T05:28:28.330Z,13.43
2023-03-24T05:30:56.861Z,13.39
2023-03-24T05:33:23.421Z,13.34
2023-03-24T05:35:49.930Z,13.26
2023-03-24T05:38:16.412Z,13.29
2023-03-24T05:40:42.895Z,13.25
2023-03-24T05:43:09.964Z,13.25
2023-03-24T05:45:36.479Z,13.26
2023-03-24T05:48:03.235Z,13.25
2023-03-24T05:50:29.834Z,13.23
2023-03-24T05:52:59.022Z,13.20
2023-03-24T05:55:27.613Z,13.21
2023-03-24T05:57:54.130Z,13.17
2023-03-24T06:00:21.094Z,13.24
2023-03-24T06:02:47.658Z,13.25
2023-03-24T06:05:14.386Z,13.32
2023-03-24T06:07:44.514Z,13.23
2023-03-24T06:10:11.810Z,13.22
2023-03-24T06:12:38.824Z,13.26
2023-03-24T06:15:06.228Z,13.39
2023-03-24T06:17:32.801Z,13.42
2023-03-24T06:20:05.747Z,13.41
2023-03-24T06:22:33.861Z,13.38
2023-03-24T06:25:00.710Z,13.35
2023-03-24T06:27:30.563Z,13.49
2023-03-24T06:30:00.610Z,13.38
2023-03-24T06:32:27.357Z,13.40
2023-03-24T06:34:53.925Z,13.38
2023-03-24T06:37:23.603Z,13.43
2023-03-24T06:39:50.326Z,13.28
2023-03-24T06:42:17.718Z,13.10
2023-03-24T06:44:44.299Z,13.06
2023-03-24T06:47:10.819Z,12.88
2023-03-24T06:49:37.372Z,12.71
2023-03-24T06:52:05.066Z,12.50
2023-03-24T06:54:31.595Z,12.40
2023-03-24T06:57:01.139Z,12.30
2023-03-24T06:59:30.728Z,12.24
2023-03-24T07:01:57.414Z,12.21
2023-03-24T07:04:25.698Z,12.44
2023-03-24T07:09:23.241Z,12.63
2023-03-24T07:11:49.651Z,12.66
2023-03-24T07:14:16.108Z,12.74
2023-03-24T07:16:42.729Z,12.75
2023-03-24T07:19:09.254Z,12.77
2023-03-24T07:21:35.690Z,12.84
2023-03-24T07:24:02.323Z,12.96
2023-03-24T07:26:29.027Z,12.96
2023-03-24T07:28:55.968Z,13.15
2023-03-24T07:31:22.904Z,13.07
2023-03-24T07:33:49.507Z,13.00
2023-03-24T07:36:16.812Z,12.91
2023-03-24T07:38:43.732Z,12.85
2023-03-24T07:41:10.454Z,13.04
2023-03-24T07:43:37.020Z,13.01
2023-03-24T07:46:03.592Z,13.02
2023-03-24T07:48:30.092Z,12.95
2023-03-24T07:51:02.481Z,12.90
2023-03-24T07:53:32.419Z,12.87
2023-03-24T07:56:01.927Z,12.83
2023-03-24T07:58:32.239Z,12.81
2023-03-24T08:01:02.148Z,12.88
2023-03-24T08:03:32.225Z,12.59
2023-03-24T08:06:02.144Z,12.64
2023-03-24T08:08:30.338Z,12.51
2023-03-24T08:11:00.257Z,12.55
2023-03-24T08:13:30.528Z,12.67
2023-03-24T08:15:59.956Z,12.50
2023-03-24T08:18:28.923Z,12.44
2023-03-24T08:21:02.251Z,12.47
2023-03-24T08:23:32.133Z,12.53
2023-03-24T08:26:01.287Z,12.51
2023-03-24T08:28:29.170Z,12.59
2023-03-24T08:30:55.837Z,12.55
2023-03-24T08:33:22.352Z,12.55
2023-03-24T08:35:49.293Z,12.43
2023-03-24T08:38:18.623Z,12.54
2023-03-24T08:40:45.772Z,12.60
2023-03-24T08:43:15.918Z,12.60
2023-03-24T08:45:42.922Z,12.50
2023-03-24T08:48:10.503Z,12.92
2023-03-24T08:50:40.629Z,13.09
2023-03-24T08:53:08.225Z,13.28
2023-03-24T08:55:34.927Z,13.33
2023-03-24T08:58:01.544Z,13.61
2023-03-24T09:00:31.384Z,13.64
2023-03-24T09:03:01.462Z,13.65
2023-03-24T09:05:54.273Z,13.83
2023-03-24T09:08:19.339Z,13.97
2023-03-24T09:10:47.172Z,13.83
2023-03-24T09:13:13.983Z,13.85
2023-03-24T09:15:40.643Z,13.74
2023-03-24T09:18:07.713Z,13.53
2023-03-24T09:20:34.228Z,13.61
2023-03-24T09:23:00.810Z,13.44
2023-03-24T09:25:29.729Z,13.27
2023-03-24T09:27:59.331Z,13.28
2023-03-24T09:30:26.037Z,13.28
2023-03-24T09:32:52.631Z,13.22
2023-03-24T09:35:22.473Z,13.23
2023-03-24T09:37:48.946Z,13.34
2023-03-24T09:40:21.365Z,13.32
2023-03-24T09:43:03.312Z,13.19
2023-03-24T09:45:34.429Z,13.03
2023-03-24T09:48:08.025Z,12.95
2023-03-24T09:50:54.837Z,12.92
2023-03-24T09:53:47.119Z,12.99
2023-03-24T09:56:16.765Z,12.99
2023-03-24T09:58:49.647Z,12.92
2023-03-24T10:01:17.583Z,12.91
2023-03-24T10:03:46.217Z,13.04
2023-03-24T10:06:29.339Z,13.01
2023-03-24T10:09:12.343Z,13.29
2023-03-24T10:11:52.777Z,13.24
2023-03-24T10:14:46.830Z,13.05
2023-03-24T10:17:25.997Z,12.78
2023-03-24T10:20:00.932Z,12.85
2023-03-24T10:23:03.496Z,12.82
2023-03-24T10:25:48.817Z,12.83
2023-03-24T10:28:22.935Z,12.84
2023-03-24T10:30:53.480Z,12.93
2023-03-24T10:33:21.004Z,12.98
2023-03-24T10:36:07.698Z,12.99
2023-03-24T10:38:34.629Z,12.81
2023-03-24T10:41:02.726Z,12.83
2023-03-24T10:43:30.755Z,12.88
2023-03-24T10:45:59.919Z,13.00
2023-03-24T10:48:45.041Z,13.01
2023-03-24T10:51:20.055Z,13.03
2023-03-24T10:53:48.706Z,13.18
2023-03-24T10:56:40.608Z,13.17
2023-03-24T10:59:34.004Z,13.12
2023-03-24T11:02:09.575Z,13.14
2023-03-24T11:04:41.753Z,13.19
2023-03-24T11:07:17.692Z,13.21
2023-03-24T11:09:59.775Z,13.09
2023-03-24T11:12:30.659Z,13.03
2023-03-24T11:15:21.471Z,13.31
2023-03-24T11:18:11.885Z,13.13
2023-03-24T11:20:41.453Z,12.93
2023-03-24T11:23:40.644Z,12.94
2023-03-24T11:26:14.652Z,12.88
2023-03-24T11:28:46.153Z,12.95
2023-03-24T11:31:24.372Z,12.90
2023-03-24T11:34:16.810Z,12.81
2023-03-24T11:36:51.948Z,12.69
2023-03-24T11:39:25.016Z,12.69
2023-03-24T11:42:01.759Z,12.64
2023-03-24T11:44:38.665Z,12.53
2023-03-24T11:47:14.358Z,12.73
2023-03-24T11:49:49.845Z,12.63
2023-03-24T11:52:28.859Z,12.41
2023-03-24T11:55:09.131Z,12.20
2023-03-24T11:57:48.955Z,12.14
2023-03-24T12:00:24.978Z,11.85
2023-03-24T12:03:10.666Z,11.92
2023-03-24T12:05:42.397Z,11.86
2023-03-24T12:08:19.509Z,12.01
2023-03-24T12:11:07.212Z,12.06
2023-03-24T12:13:41.260Z,12.02
2023-03-24T12:16:10.812Z,11.98
2023-03-24T12:18:48.226Z,12.00
2023-03-24T12:21:37.362Z,12.09
2023-03-24T12:24:32.301Z,12.13
2023-03-24T12:27:00.868Z,12.08
2023-03-24T12:29:41.469Z,12.19
2023-03-24T12:32:33.995Z,12.01
2023-03-24T12:35:26.860Z,12.01
2023-03-24T12:38:05.797Z,12.07
2023-03-24T12:40:55.090Z,11.93
2023-03-24T12:43:35.981Z,11.93
2023-03-24T12:46:37.078Z,11.94
2023-03-24T12:49:41.722Z,11.84
2023-03-24T12:52:32.006Z,11.82
2023-03-24T12:55:06.431Z,11.84
2023-03-24T12:57:56.696Z,11.93
2023-03-24T13:00:31.813Z,11.88
2023-03-24T13:03:06.147Z,11.84
2023-03-24T13:05:38.360Z,11.74
2023-03-24T13:08:29.907Z,11.86
2023-03-24T13:11:03.928Z,11.83
2023-03-24T13:13:35.395Z,12.00
2023-03-24T13:16:32.240Z,12.04
2023-03-24T13:19:04.565Z,12.25
2023-03-24T13:21:35.357Z,12.21
2023-03-24T13:24:12.803Z,12.29
2023-03-24T13:26:54.227Z,12.25
2023-03-24T13:29:41.792Z,12.41
2023-03-24T13:32:21.493Z,12.41
2023-03-24T13:34:53.246Z,12.49
2023-03-24T13:37:24.481Z,12.62
2023-03-24T13:40:02.114Z,12.75
2023-03-24T13:42:48.033Z,12.95
2023-03-24T13:45:23.734Z,13.08
2023-03-24T13:48:05.480Z,13.17
2023-03-24T13:50:39.832Z,13.16
2023-03-24T13:53:14.127Z,13.35
2023-03-24T13:55:48.360Z,13.52
2023-03-24T13:58:21.154Z,13.58
2023-03-24T14:01:08.841Z,13.90
2023-03-24T14:03:38.979Z,14.15
2023-03-24T14:06:09.368Z,14.12
2023-03-24T14:08:47.964Z,14.27
2023-03-24T14:11:38.225Z,14.50
2023-03-24T14:14:13.558Z,14.72
2023-03-24T14:16:51.907Z,14.75
2023-03-24T14:19:30.411Z,14.26
2023-03-24T14:22:15.300Z,14.12
2023-03-24T14:24:46.151Z,14.07
2023-03-24T14:27:42.542Z,14.21
2023-03-24T14:30:20.331Z,14.28
2023-03-24T14:32:52.230Z,14.39
2023-03-24T14:35:23.339Z,14.42
2023-03-24T14:37:54.012Z,14.81
2023-03-24T14:40:39.245Z,14.60
2023-03-24T14:43:18.074Z,14.44
2023-03-24T14:46:21.091Z,14.52
2023-03-24T14:49:23.871Z,14.47
2023-03-24T14:52:13.288Z,14.47
2023-03-24T14:54:45.689Z,14.59
2023-03-24T14:57:20.682Z,14.79
2023-03-24T14:59:53.187Z,14.73
2023-03-24T15:02:29.829Z,14.44
2023-03-24T15:05:14.784Z,14.99
2023-03-24T15:08:03.777Z,14.84
2023-03-24T15:10:52.700Z,15.66
2023-03-24T15:13:53.369Z,16.85
2023-03-24T15:16:31.514Z,16.41
2023-03-24T15:19:02.466Z,16.28
2023-03-24T15:21:38.791Z,16.73
2023-03-24T15:24:38.143Z,17.75
2023-03-24T15:27:07.751Z,17.82
2023-03-24T15:29:38.969Z,17.69
2023-03-24T15:32:17.515Z,17.11
2023-03-24T15:34:57.246Z,16.44
2023-03-24T15:37:32.629Z,15.68
2023-03-24T15:40:08.997Z,15.46
2023-03-24T15:42:44.899Z,15.38
2023-03-24T15:45:27.148Z,15.19
2023-03-24T15:47:54.635Z,15.04
2023-03-24T15:50:37.314Z,14.63
2023-03-24T15:53:06.807Z,14.80
2023-03-24T15:55:36.681Z,14.87
2023-03-24T15:58:28.407Z,14.88
2023-03-24T16:00:59.770Z,14.88
2023-03-24T16:03:27.314Z,14.68
2023-03-24T16:05:56.210Z,14.57
2023-03-24T16:08:41.412Z,14.32
2023-03-24T16:11:13.213Z,14.52
2023-03-24T16:13:44.916Z,14.44
2023-03-24T16:16:14.359Z,14.59
2023-03-24T16:18:43.794Z,14.46
2023-03-24T16:21:18.868Z,14.63
2023-03-24T16:23:46.636Z,14.81
2023-03-24T16:26:28.908Z,15.14
2023-03-24T16:29:05.806Z,15.00
2023-03-24T16:31:38.352Z,14.90
2023-03-24T16:34:08.009Z,14.90
2023-03-24T16:36:38.173Z,14.98
2023-03-24T16:39:15.830Z,14.56
2023-03-24T16:41:42.908Z,14.30
2023-03-24T16:44:10.824Z,14.13
2023-03-24T16:46:38.182Z,14.12
2023-03-24T16:49:12.333Z,14.16
2023-03-24T16:51:38.979Z,14.11
2023-03-24T16:54:07.807Z,14.23
2023-03-24T16:56:36.518Z,14.24
2023-03-24T16:59:06.527Z,14.34
2023-03-24T17:01:41.494Z,14.42
2023-03-24T17:04:13.272Z,14.32
2023-03-24T17:06:42.318Z,14.29
2023-03-24T17:09:10.102Z,14.18
2023-03-24T17:11:43.191Z,13.97
2023-03-24T17:14:12.320Z,13.97
2023-03-24T17:16:44.487Z,13.77
2023-03-24T17:19:16.790Z,13.69
2023-03-24T17:22:06.640Z,13.78
2023-03-24T17:24:39.627Z,13.66
2023-03-24T17:27:13.076Z,13.66
2023-03-24T17:29:39.494Z,13.54
2023-03-24T17:32:06.713Z,13.66
2023-03-24T17:34:36.430Z,13.75
2023-03-24T17:37:02.869Z,13.86
2023-03-24T17:39:29.339Z,13.82
2023-03-24T17:41:59.530Z,13.76
2023-03-24T17:44:26.064Z,13.50
2023-03-24T17:46:52.671Z,13.38
2023-03-24T17:49:19.327Z,13.15
2023-03-24T17:51:45.914Z,13.08
2023-03-24T17:54:13.274Z,12.85
2023-03-24T17:56:40.284Z,12.86
2023-03-24T17:59:06.848Z,12.72
2023-03-24T18:01:36.327Z,12.61
2023-03-24T18:04:02.941Z,12.59
2023-03-24T18:06:30.750Z,12.47
2023-03-24T18:08:57.579Z,12.44
2023-03-24T18:11:24.194Z,12.32
2023-03-24T18:13:52.062Z,12.21
2023-03-24T18:16:21.826Z,12.14
2023-03-24T18:18:50.680Z,11.94
2023-03-24T18:21:17.894Z,12.00
2023-03-24T18:23:46.385Z,12.05
2023-03-24T18:26:13.332Z,11.86
2023-03-24T18:28:39.925Z,11.71
2023-03-24T18:31:20.027Z,11.65
2023-03-24T18:33:47.496Z,11.50
2023-03-24T18:36:37.624Z,11.49
2023-03-24T18:39:07.610Z,11.60
2023-03-24T18:41:37.317Z,11.72
2023-03-24T18:44:07.184Z,11.76
2023-03-24T18:46:34.753Z,11.80
2023-03-24T18:49:01.503Z,11.90
2023-03-24T18:51:28.378Z,11.94
2023-03-24T18:53:55.393Z,11.95
2023-03-24T18:56:23.133Z,11.94
2023-03-24T18:58:51.350Z,11.94
2023-03-24T19:01:22.648Z,11.94
2023-03-24T19:03:50.552Z,11.58
2023-03-24T19:06:17.808Z,11.50
2023-03-24T19:08:51.609Z,11.43
2023-03-24T19:11:18.425Z,11.20
2023-03-24T19:13:47.216Z,11.14
2023-03-24T19:16:13.723Z,11.05
2023-03-24T19:18:40.299Z,11.04
2023-03-24T19:21:07.303Z,11.05
2023-03-24T19:23:36.067Z,11.05
2023-03-24T19:26:02.774Z,11.10
2023-03-24T19:28:34.564Z,11.11
2023-03-24T19:31:10.691Z,11.13
2023-03-24T19:33:41.258Z,10.76
2023-03-24T19:36:09.160Z,10.95
2023-03-24T19:38:37.669Z,10.95
2023-03-24T19:41:09.843Z,10.93
2023-03-24T19:43:39.248Z,10.82
2023-03-24T19:46:10.206Z,10.87
2023-03-24T19:48:42.269Z,10.96
2023-03-24T19:51:08.833Z,10.90
2023-03-24T19:53:37.851Z,10.89
2023-03-24T19:56:04.871Z,10.91
2023-03-24T19:58:31.567Z,10.85
2023-03-24T20:00:58.117Z,10.86
2023-03-24T20:03:24.670Z,10.76
2023-03-24T20:05:51.485Z,10.68
2023-03-24T20:08:19.261Z,10.78
2023-03-24T20:10:46.327Z,10.77
2023-03-24T20:13:12.780Z,10.78
2023-03-24T20:15:39.912Z,10.57
2023-03-24T20:18:09.154Z,10.82
2023-03-24T20:20:35.652Z,10.95
2023-03-24T20:23:02.116Z,10.99
2023-03-24T20:25:28.807Z,10.88
2023-03-24T20:27:55.475Z,10.85
2023-03-24T20:30:22.281Z,10.87
2023-03-24T20:32:48.830Z,10.84
2023-03-24T20:35:15.885Z,10.88
2023-03-24T20:37:42.504Z,10.70
2023-03-24T20:40:13.288Z,10.65
2023-03-24T20:42:42.754Z,10.61
2023-03-24T20:45:12.010Z,10.43
2023-03-24T20:47:40.794Z,10.41
2023-03-24T20:50:10.348Z,10.63
2023-03-24T20:52:36.851Z,10.47
2023-03-24T20:55:06.367Z,10.55
2023-03-24T20:57:33.452Z,10.59
2023-03-24T21:00:00.035Z,10.39
2023-03-24T21:02:26.619Z,10.36
2023-03-24T21:04:53.322Z,10.26
2023-03-24T21:07:22.787Z,9.90
2023-03-24T21:09:49.285Z,10.23
2023-03-24T21:12:16.210Z,10.30
2023-03-24T21:14:46.694Z,10.29
2023-03-24T21:17:13.741Z,10.31
2023-03-24T21:19:49.040Z,10.18
2023-03-24T21:22:15.806Z,10.28
2023-03-24T21:24:42.670Z,10.30
2023-03-24T21:27:11.932Z,10.41
2023-03-24T21:29:40.543Z,10.29
2023-03-24T21:32:07.355Z,10.40
2023-03-24T21:34:33.856Z,10.39
2023-03-24T21:37:01.425Z,10.36
2023-03-24T21:39:28.269Z,10.30
2023-03-24T21:41:54.700Z,10.19
2023-03-24T21:44:22.783Z,10.17
2023-03-24T21:46:49.242Z,10.18
2023-03-24T21:49:18.764Z,10.13
2023-03-24T21:51:46.552Z,10.17
2023-03-24T21:54:14.935Z,10.35
2023-03-24T21:56:41.813Z,10.35
2023-03-24T21:59:10.446Z,10.32
2023-03-24T22:01:37.194Z,10.15
2023-03-24T22:04:12.219Z,10.14
2023-03-24T22:06:41.746Z,10.12
2023-03-24T22:09:11.812Z,10.18
2023-03-24T22:11:42.847Z,10.09
2023-03-24T22:14:11.765Z,10.10
2023-03-24T22:16:45.371Z,10.15
2023-03-24T22:19:14.934Z,10.04
2023-03-24T22:21:49.487Z,10.05
2023-03-24T22:24:16.620Z,10.01
2023-03-24T22:26:43.308Z,9.88
2023-03-24T22:29:11.943Z,9.96
2023-03-24T22:31:43.809Z,9.99
2023-03-24T22:34:13.580Z,9.98
2023-03-24T22:36:42.163Z,9.93
2023-03-24T22:39:08.705Z,9.88
2023-03-24T22:41:35.644Z,9.81
2023-03-24T22:44:02.766Z,9.88
2023-03-24T22:46:29.558Z,9.88
2023-03-24T22:48:56.331Z,9.79
2023-03-24T22:51:22.987Z,9.74
2023-03-24T22:53:49.535Z,9.68
2023-03-24T22:56:15.998Z,9.56
2023-03-24T22:58:45.390Z,9.57
2023-03-24T23:01:14.643Z,9.57
2023-03-24T23:03:41.342Z,9.65
2023-03-24T23:06:16.982Z,9.71
2023-03-24T23:08:46.571Z,9.66
2023-03-24T23:11:17.070Z,9.68
2023-03-24T23:13:44.497Z,9.74
2023-03-24T23:16:11.135Z,9.73
2023-03-24T23:18:38.464Z,9.75
2023-03-24T23:21:08.189Z,9.65
2023-03-24T23:23:35.928Z,9.54
2023-03-24T23:26:04.756Z,9.56
2023-03-24T23:28:32.330Z,9.53
2023-03-24T23:30:58.828Z,9.51
2023-03-24T23:33:26.085Z,9.52
2023-03-24T23:35:57.617Z,9.43
2023-03-24T23:38:24.273Z,9.42
2023-03-24T23:40:50.838Z,9.53
2023-03-24T23:43:17.340Z,9.46
2023-03-24T23:45:48.338Z,9.42
2023-03-24T23:48:14.914Z,9.45
2023-03-24T23:50:42.018Z,9.56
2023-03-24T23:53:08.646Z,9.60
2023-03-24T23:55:35.161Z,9.61
2023-03-24T23:58:01.838Z,9.52
